sensor_id;sensor_type;location;lat;lon;timestamp;P1;durP1;ratioP1;P2;durP2;ratioP2
81124;SDS011;72192;52.114;5.424;2024-03-25T00:01:17;7.37;;;1.47;;
81124;SDS011;72192;52.114;5.424;2024-03-25T00:03:48;8.00;;;1.45;;
81124;SDS011;72192;52.114;5.424;2024-03-25T00:06:16;4.82;;;1.10;;
81124;SDS011;72192;52.114;5.424;2024-03-25T00:08:45;10.68;;;1.88;;
81124;SDS011;72192;52.114;5.424;2024-03-25T00:11:14;10.13;;;1.70;;
81124;SDS011;72192;52.114;5.424;2024-03-25T00:16:14;9.43;;;1.55;;
81124;SDS011;72192;52.114;5.424;2024-03-25T00:21:21;9.07;;;2.03;;
81124;SDS011;72192;52.114;5.424;2024-03-25T00:23:48;7.47;;;1.85;;
81124;SDS011;72192;52.114;5.424;2024-03-25T00:26:15;12.83;;;3.40;;
81124;SDS011;72192;52.114;5.424;2024-03-25T00:31:35;12.40;;;4.13;;
81124;SDS011;72192;52.114;5.424;2024-03-25T00:34:04;9.50;;;1.70;;
81124;SDS011;72192;52.114;5.424;2024-03-25T00:36:33;13.30;;;2.00;;
81124;SDS011;72192;52.114;5.424;2024-03-25T00:41:37;8.32;;;1.52;;
81124;SDS011;72192;52.114;5.424;2024-03-25T00:44:04;16.35;;;1.92;;
81124;SDS011;72192;52.114;5.424;2024-03-25T00:46:33;9.38;;;2.05;;
81124;SDS011;72192;52.114;5.424;2024-03-25T00:49:02;12.90;;;1.80;;
81124;SDS011;72192;52.114;5.424;2024-03-25T00:51:31;16.67;;;1.98;;
81124;SDS011;72192;52.114;5.424;2024-03-25T00:53:59;14.33;;;2.20;;
81124;SDS011;72192;52.114;5.424;2024-03-25T00:56:29;10.53;;;1.53;;
81124;SDS011;72192;52.114;5.424;2024-03-25T01:01:36;11.80;;;1.80;;
81124;SDS011;72192;52.114;5.424;2024-03-25T01:04:03;7.30;;;1.70;;
81124;SDS011;72192;52.114;5.424;2024-03-25T01:06:30;11.57;;;2.00;;
81124;SDS011;72192;52.114;5.424;2024-03-25T01:17:05;11.05;;;1.70;;
81124;SDS011;72192;52.114;5.424;2024-03-25T01:22:08;8.60;;;1.70;;
81124;SDS011;72192;52.114;5.424;2024-03-25T01:24:35;11.57;;;1.55;;
81124;SDS011;72192;52.114;5.424;2024-03-25T01:27:02;6.40;;;1.35;;
81124;SDS011;72192;52.114;5.424;2024-03-25T01:29:30;16.90;;;2.20;;
81124;SDS011;72192;52.114;5.424;2024-03-25T01:31:59;9.45;;;2.00;;
81124;SDS011;72192;52.114;5.424;2024-03-25T01:34:29;11.07;;;1.67;;
81124;SDS011;72192;52.114;5.424;2024-03-25T01:42:15;8.85;;;1.90;;
81124;SDS011;72192;52.114;5.424;2024-03-25T01:44:42;12.88;;;2.58;;
81124;SDS011;72192;52.114;5.424;2024-03-25T01:47:11;8.43;;;1.50;;
81124;SDS011;72192;52.114;5.424;2024-03-25T01:49:39;7.85;;;1.90;;
81124;SDS011;72192;52.114;5.424;2024-03-25T01:52:06;14.18;;;1.73;;
81124;SDS011;72192;52.114;5.424;2024-03-25T01:54:33;9.23;;;1.50;;
81124;SDS011;72192;52.114;5.424;2024-03-25T02:02:03;11.45;;;2.05;;
81124;SDS011;72192;52.114;5.424;2024-03-25T02:04:31;8.65;;;1.75;;
81124;SDS011;72192;52.114;5.424;2024-03-25T02:06:58;9.70;;;1.90;;
81124;SDS011;72192;52.114;5.424;2024-03-25T02:09:28;13.50;;;2.60;;
81124;SDS011;72192;52.114;5.424;2024-03-25T02:11:58;14.40;;;2.25;;
81124;SDS011;72192;52.114;5.424;2024-03-25T02:14:26;10.25;;;1.85;;
81124;SDS011;72192;52.114;5.424;2024-03-25T02:16:56;8.75;;;2.00;;
81124;SDS011;72192;52.114;5.424;2024-03-25T02:19:35;9.93;;;2.67;;
81124;SDS011;72192;52.114;5.424;2024-03-25T02:25:13;10.45;;;1.95;;
81124;SDS011;72192;52.114;5.424;2024-03-25T02:30:20;9.32;;;2.10;;
81124;SDS011;72192;52.114;5.424;2024-03-25T02:32:49;15.88;;;2.17;;
81124;SDS011;72192;52.114;5.424;2024-03-25T02:35:17;11.70;;;2.60;;
81124;SDS011;72192;52.114;5.424;2024-03-25T02:37:45;14.52;;;2.33;;
81124;SDS011;72192;52.114;5.424;2024-03-25T02:40:14;6.80;;;1.93;;
81124;SDS011;72192;52.114;5.424;2024-03-25T02:42:43;11.10;;;2.65;;
81124;SDS011;72192;52.114;5.424;2024-03-25T02:45:15;13.80;;;2.28;;
81124;SDS011;72192;52.114;5.424;2024-03-25T02:47:45;13.02;;;2.33;;
81124;SDS011;72192;52.114;5.424;2024-03-25T02:52:46;10.85;;;2.30;;
81124;SDS011;72192;52.114;5.424;2024-03-25T02:55:15;10.82;;;2.15;;
81124;SDS011;72192;52.114;5.424;2024-03-25T02:57:42;8.40;;;1.85;;
81124;SDS011;72192;52.114;5.424;2024-03-25T03:00:11;11.60;;;2.70;;
81124;SDS011;72192;52.114;5.424;2024-03-25T03:02:41;14.77;;;2.40;;
81124;SDS011;72192;52.114;5.424;2024-03-25T03:05:10;9.73;;;2.00;;
81124;SDS011;72192;52.114;5.424;2024-03-25T03:07:39;11.10;;;2.05;;
81124;SDS011;72192;52.114;5.424;2024-03-25T03:10:06;11.40;;;1.85;;
81124;SDS011;72192;52.114;5.424;2024-03-25T03:12:36;12.25;;;2.40;;
81124;SDS011;72192;52.114;5.424;2024-03-25T03:15:12;12.52;;;2.10;;
81124;SDS011;72192;52.114;5.424;2024-03-25T03:20:31;11.05;;;2.70;;
81124;SDS011;72192;52.114;5.424;2024-03-25T03:28:56;9.33;;;1.80;;
81124;SDS011;72192;52.114;5.424;2024-03-25T03:31:25;12.63;;;2.13;;
81124;SDS011;72192;52.114;5.424;2024-03-25T03:33:53;8.13;;;1.80;;
81124;SDS011;72192;52.114;5.424;2024-03-25T03:36:23;13.27;;;2.10;;
81124;SDS011;72192;52.114;5.424;2024-03-25T03:38:52;9.30;;;1.60;;
81124;SDS011;72192;52.114;5.424;2024-03-25T03:41:28;8.77;;;2.90;;
81124;SDS011;72192;52.114;5.424;2024-03-25T03:43:59;9.55;;;2.45;;
81124;SDS011;72192;52.114;5.424;2024-03-25T03:49:24;9.70;;;2.20;;
81124;SDS011;72192;52.114;5.424;2024-03-25T03:51:51;9.00;;;2.70;;
81124;SDS011;72192;52.114;5.424;2024-03-25T03:54:19;11.60;;;2.15;;
81124;SDS011;72192;52.114;5.424;2024-03-25T03:56:46;5.17;;;1.87;;
81124;SDS011;72192;52.114;5.424;2024-03-25T04:04:23;10.75;;;2.40;;
81124;SDS011;72192;52.114;5.424;2024-03-25T04:06:50;12.80;;;3.10;;
81124;SDS011;72192;52.114;5.424;2024-03-25T04:09:17;11.70;;;2.40;;
81124;SDS011;72192;52.114;5.424;2024-03-25T04:14:24;13.38;;;2.10;;
81124;SDS011;72192;52.114;5.424;2024-03-25T04:16:53;10.37;;;2.17;;
81124;SDS011;72192;52.114;5.424;2024-03-25T04:19:24;7.47;;;1.85;;
81124;SDS011;72192;52.114;5.424;2024-03-25T04:24:46;6.75;;;2.40;;
81124;SDS011;72192;52.114;5.424;2024-03-25T04:27:29;10.63;;;2.73;;
81124;SDS011;72192;52.114;5.424;2024-03-25T04:35:02;8.30;;;3.00;;
81124;SDS011;72192;52.114;5.424;2024-03-25T04:40:05;9.03;;;2.37;;
81124;SDS011;72192;52.114;5.424;2024-03-25T04:42:34;8.60;;;2.10;;
81124;SDS011;72192;52.114;5.424;2024-03-25T04:45:03;12.55;;;2.15;;
81124;SDS011;72192;52.114;5.424;2024-03-25T04:47:30;7.20;;;2.22;;
81124;SDS011;72192;52.114;5.424;2024-03-25T04:52:32;7.45;;;2.60;;
81124;SDS011;72192;52.114;5.424;2024-03-25T04:55:01;9.20;;;2.15;;
81124;SDS011;72192;52.114;5.424;2024-03-25T04:57:31;14.63;;;2.88;;
81124;SDS011;72192;52.114;5.424;2024-03-25T05:00:00;5.85;;;1.90;;
81124;SDS011;72192;52.114;5.424;2024-03-25T05:02:28;8.50;;;2.37;;
81124;SDS011;72192;52.114;5.424;2024-03-25T05:04:55;10.15;;;2.65;;
81124;SDS011;72192;52.114;5.424;2024-03-25T05:07:22;7.80;;;2.22;;
81124;SDS011;72192;52.114;5.424;2024-03-25T05:09:49;6.45;;;1.50;;
81124;SDS011;72192;52.114;5.424;2024-03-25T05:19:52;9.82;;;2.15;;
81124;SDS011;72192;52.114;5.424;2024-03-25T05:22:20;8.57;;;1.80;;
81124;SDS011;72192;52.114;5.424;2024-03-25T05:32:19;5.75;;;2.30;;
81124;SDS011;72192;52.114;5.424;2024-03-25T05:34:50;13.15;;;2.40;;
81124;SDS011;72192;52.114;5.424;2024-03-25T05:37:17;11.35;;;2.60;;
81124;SDS011;72192;52.114;5.424;2024-03-25T05:39:47;8.90;;;2.35;;
81124;SDS011;72192;52.114;5.424;2024-03-25T05:42:16;6.15;;;2.08;;
81124;SDS011;72192;52.114;5.424;2024-03-25T05:47:19;12.45;;;2.90;;
81124;SDS011;72192;52.114;5.424;2024-03-25T05:49:47;12.10;;;2.80;;
81124;SDS011;72192;52.114;5.424;2024-03-25T05:52:15;20.42;;;4.18;;
81124;SDS011;72192;52.114;5.424;2024-03-25T05:57:18;16.75;;;3.53;;
81124;SDS011;72192;52.114;5.424;2024-03-25T05:59:47;15.37;;;4.20;;
81124;SDS011;72192;52.114;5.424;2024-03-25T06:07:15;25.85;;;3.53;;
81124;SDS011;72192;52.114;5.424;2024-03-25T06:09:45;12.35;;;2.95;;
81124;SDS011;72192;52.114;5.424;2024-03-25T06:17:25;13.43;;;3.77;;
81124;SDS011;72192;52.114;5.424;2024-03-25T06:19:54;14.10;;;3.10;;
81124;SDS011;72192;52.114;5.424;2024-03-25T06:22:23;15.27;;;3.47;;
81124;SDS011;72192;52.114;5.424;2024-03-25T06:42:45;16.08;;;3.08;;
81124;SDS011;72192;52.114;5.424;2024-03-25T06:45:18;13.65;;;3.60;;
81124;SDS011;72192;52.114;5.424;2024-03-25T06:55:59;11.43;;;2.87;;
81124;SDS011;72192;52.114;5.424;2024-03-25T06:58:29;11.57;;;3.33;;
81124;SDS011;72192;52.114;5.424;2024-03-25T07:03:26;15.40;;;3.60;;
81124;SDS011;72192;52.114;5.424;2024-03-25T07:05:55;11.43;;;3.63;;
81124;SDS011;72192;52.114;5.424;2024-03-25T07:08:30;16.20;;;5.43;;
81124;SDS011;72192;52.114;5.424;2024-03-25T07:11:00;15.68;;;3.90;;
81124;SDS011;72192;52.114;5.424;2024-03-25T07:13:27;16.13;;;3.70;;
81124;SDS011;72192;52.114;5.424;2024-03-25T07:21:05;11.15;;;2.88;;
81124;SDS011;72192;52.114;5.424;2024-03-25T07:23:34;13.13;;;3.65;;
81124;SDS011;72192;52.114;5.424;2024-03-25T07:26:00;12.38;;;3.55;;
81124;SDS011;72192;52.114;5.424;2024-03-25T07:30:55;10.75;;;3.13;;
81124;SDS011;72192;52.114;5.424;2024-03-25T07:33:58;12.73;;;3.42;;
81124;SDS011;72192;52.114;5.424;2024-03-25T07:36:27;12.65;;;2.80;;
81124;SDS011;72192;52.114;5.424;2024-03-25T07:39:01;13.60;;;3.20;;
81124;SDS011;72192;52.114;5.424;2024-03-25T07:41:29;8.90;;;2.90;;
81124;SDS011;72192;52.114;5.424;2024-03-25T07:43:58;13.55;;;2.60;;
81124;SDS011;72192;52.114;5.424;2024-03-25T07:46:30;15.00;;;3.40;;
81124;SDS011;72192;52.114;5.424;2024-03-25T07:48:58;9.10;;;3.03;;
81124;SDS011;72192;52.114;5.424;2024-03-25T07:51:26;11.20;;;3.28;;
81124;SDS011;72192;52.114;5.424;2024-03-25T07:56:23;9.35;;;2.80;;
81124;SDS011;72192;52.114;5.424;2024-03-25T07:58:52;10.88;;;2.92;;
81124;SDS011;72192;52.114;5.424;2024-03-25T08:01:21;10.82;;;2.90;;
81124;SDS011;72192;52.114;5.424;2024-03-25T08:03:50;17.00;;;3.55;;
81124;SDS011;72192;52.114;5.424;2024-03-25T08:06:19;15.35;;;2.40;;
81124;SDS011;72192;52.114;5.424;2024-03-25T08:08:48;12.65;;;3.30;;
81124;SDS011;72192;52.114;5.424;2024-03-25T08:11:15;7.82;;;2.47;;
81124;SDS011;72192;52.114;5.424;2024-03-25T08:13:42;16.67;;;3.30;;
81124;SDS011;72192;52.114;5.424;2024-03-25T08:16:11;14.30;;;2.85;;
81124;SDS011;72192;52.114;5.424;2024-03-25T08:18:38;10.77;;;3.13;;
81124;SDS011;72192;52.114;5.424;2024-03-25T08:21:07;10.15;;;2.50;;
81124;SDS011;72192;52.114;5.424;2024-03-25T08:23:36;9.75;;;2.70;;
81124;SDS011;72192;52.114;5.424;2024-03-25T08:26:02;8.45;;;2.25;;
81124;SDS011;72192;52.114;5.424;2024-03-25T08:30:55;10.90;;;2.95;;
81124;SDS011;72192;52.114;5.424;2024-03-25T08:35:48;19.27;;;3.65;;
81124;SDS011;72192;52.114;5.424;2024-03-25T08:38:15;23.98;;;5.75;;
81124;SDS011;72192;52.114;5.424;2024-03-25T08:40:44;26.50;;;6.95;;
81124;SDS011;72192;52.114;5.424;2024-03-25T08:43:11;12.90;;;3.70;;
81124;SDS011;72192;52.114;5.424;2024-03-25T08:45:39;14.43;;;2.92;;
81124;SDS011;72192;52.114;5.424;2024-03-25T08:48:06;10.70;;;2.47;;
81124;SDS011;72192;52.114;5.424;2024-03-25T08:50:32;14.73;;;3.33;;
81124;SDS011;72192;52.114;5.424;2024-03-25T08:52:58;8.13;;;2.85;;
81124;SDS011;72192;52.114;5.424;2024-03-25T08:55:24;10.98;;;3.00;;
81124;SDS011;72192;52.114;5.424;2024-03-25T08:57:51;11.30;;;2.63;;
81124;SDS011;72192;52.114;5.424;2024-03-25T09:00:18;9.95;;;1.77;;
81124;SDS011;72192;52.114;5.424;2024-03-25T09:02:44;9.48;;;1.90;;
81124;SDS011;72192;52.114;5.424;2024-03-25T09:10:17;10.90;;;2.53;;
81124;SDS011;72192;52.114;5.424;2024-03-25T09:13:02;8.73;;;2.65;;
81124;SDS011;72192;52.114;5.424;2024-03-25T09:15:28;9.13;;;2.42;;
81124;SDS011;72192;52.114;5.424;2024-03-25T09:17:56;12.75;;;3.30;;
81124;SDS011;72192;52.114;5.424;2024-03-25T09:20:24;15.07;;;3.40;;
81124;SDS011;72192;52.114;5.424;2024-03-25T09:25:23;11.48;;;3.05;;
81124;SDS011;72192;52.114;5.424;2024-03-25T09:32:55;24.98;;;3.67;;
81124;SDS011;72192;52.114;5.424;2024-03-25T09:35:23;14.60;;;3.58;;
81124;SDS011;72192;52.114;5.424;2024-03-25T09:43:20;14.93;;;4.00;;
81124;SDS011;72192;52.114;5.424;2024-03-25T09:45:56;11.25;;;2.63;;
81124;SDS011;72192;52.114;5.424;2024-03-25T09:48:27;12.17;;;2.77;;
81124;SDS011;72192;52.114;5.424;2024-03-25T09:50:55;17.50;;;4.07;;
81124;SDS011;72192;52.114;5.424;2024-03-25T09:55:49;11.32;;;3.55;;
81124;SDS011;72192;52.114;5.424;2024-03-25T10:00:43;10.18;;;3.45;;
81124;SDS011;72192;52.114;5.424;2024-03-25T10:03:10;17.15;;;4.32;;
81124;SDS011;72192;52.114;5.424;2024-03-25T10:05:35;22.05;;;3.97;;
81124;SDS011;72192;52.114;5.424;2024-03-25T10:08:03;13.50;;;3.60;;
81124;SDS011;72192;52.114;5.424;2024-03-25T10:10:30;11.20;;;3.40;;
81124;SDS011;72192;52.114;5.424;2024-03-25T10:13:01;9.93;;;2.65;;
81124;SDS011;72192;52.114;5.424;2024-03-25T10:15:38;8.80;;;2.40;;
81124;SDS011;72192;52.114;5.424;2024-03-25T10:18:12;8.48;;;2.03;;
81124;SDS011;72192;52.114;5.424;2024-03-25T10:20:47;13.85;;;3.17;;
81124;SDS011;72192;52.114;5.424;2024-03-25T10:23:21;10.23;;;2.67;;
81124;SDS011;72192;52.114;5.424;2024-03-25T10:25:54;9.95;;;3.10;;
81124;SDS011;72192;52.114;5.424;2024-03-25T10:28:23;7.70;;;2.72;;
81124;SDS011;72192;52.114;5.424;2024-03-25T10:30:56;7.85;;;2.53;;
81124;SDS011;72192;52.114;5.424;2024-03-25T10:33:30;9.20;;;2.60;;
81124;SDS011;72192;52.114;5.424;2024-03-25T10:35:59;8.95;;;2.60;;
81124;SDS011;72192;52.114;5.424;2024-03-25T10:38:31;9.97;;;2.50;;
81124;SDS011;72192;52.114;5.424;2024-03-25T10:41:00;12.05;;;2.88;;
81124;SDS011;72192;52.114;5.424;2024-03-25T10:43:28;10.70;;;2.80;;
81124;SDS011;72192;52.114;5.424;2024-03-25T10:46:02;8.30;;;2.72;;
81124;SDS011;72192;52.114;5.424;2024-03-25T10:48:35;7.97;;;3.35;;
81124;SDS011;72192;52.114;5.424;2024-03-25T10:53:36;11.70;;;2.95;;
81124;SDS011;72192;52.114;5.424;2024-03-25T10:56:07;9.80;;;2.63;;
81124;SDS011;72192;52.114;5.424;2024-03-25T10:58:38;9.93;;;3.10;;
81124;SDS011;72192;52.114;5.424;2024-03-25T11:01:07;9.25;;;2.63;;
81124;SDS011;72192;52.114;5.424;2024-03-25T11:03:36;8.03;;;2.77;;
81124;SDS011;72192;52.114;5.424;2024-03-25T11:06:06;9.10;;;2.90;;
81124;SDS011;72192;52.114;5.424;2024-03-25T11:08:35;9.60;;;2.65;;
81124;SDS011;72192;52.114;5.424;2024-03-25T11:11:05;7.55;;;2.85;;
81124;SDS011;72192;52.114;5.424;2024-03-25T11:13:33;7.50;;;2.70;;
81124;SDS011;72192;52.114;5.424;2024-03-25T11:16:02;11.52;;;2.78;;
81124;SDS011;72192;52.114;5.424;2024-03-25T11:18:30;7.53;;;2.65;;
81124;SDS011;72192;52.114;5.424;2024-03-25T11:23:35;8.00;;;2.47;;
81124;SDS011;72192;52.114;5.424;2024-03-25T11:26:18;8.85;;;2.90;;
81124;SDS011;72192;52.114;5.424;2024-03-25T11:28:46;8.90;;;2.95;;
81124;SDS011;72192;52.114;5.424;2024-03-25T11:31:15;8.80;;;3.20;;
81124;SDS011;72192;52.114;5.424;2024-03-25T11:33:45;6.43;;;2.65;;
81124;SDS011;72192;52.114;5.424;2024-03-25T11:36:15;9.13;;;2.43;;
81124;SDS011;72192;52.114;5.424;2024-03-25T11:38:45;8.07;;;3.03;;
81124;SDS011;72192;52.114;5.424;2024-03-25T11:41:12;13.05;;;3.22;;
81124;SDS011;72192;52.114;5.424;2024-03-25T11:43:42;7.72;;;2.97;;
81124;SDS011;72192;52.114;5.424;2024-03-25T11:46:12;7.63;;;2.97;;
81124;SDS011;72192;52.114;5.424;2024-03-25T11:48:46;10.07;;;3.08;;
81124;SDS011;72192;52.114;5.424;2024-03-25T11:51:19;13.10;;;3.20;;
81124;SDS011;72192;52.114;5.424;2024-03-25T11:53:46;10.50;;;3.70;;
81124;SDS011;72192;52.114;5.424;2024-03-25T11:56:14;9.80;;;3.50;;
81124;SDS011;72192;52.114;5.424;2024-03-25T11:58:42;10.30;;;3.40;;
81124;SDS011;72192;52.114;5.424;2024-03-25T12:01:12;7.10;;;3.10;;
81124;SDS011;72192;52.114;5.424;2024-03-25T12:03:45;11.13;;;3.47;;
81124;SDS011;72192;52.114;5.424;2024-03-25T12:06:14;7.70;;;3.13;;
81124;SDS011;72192;52.114;5.424;2024-03-25T12:08:41;10.45;;;3.17;;
81124;SDS011;72192;52.114;5.424;2024-03-25T12:11:28;9.05;;;3.20;;
81124;SDS011;72192;52.114;5.424;2024-03-25T12:13:54;8.80;;;3.05;;
81124;SDS011;72192;52.114;5.424;2024-03-25T12:16:23;8.77;;;3.60;;
81124;SDS011;72192;52.114;5.424;2024-03-25T12:18:52;9.05;;;3.35;;
81124;SDS011;72192;52.114;5.424;2024-03-25T12:21:19;10.45;;;3.63;;
81124;SDS011;72192;52.114;5.424;2024-03-25T12:23:47;9.85;;;3.55;;
81124;SDS011;72192;52.114;5.424;2024-03-25T12:26:16;9.50;;;3.95;;
81124;SDS011;72192;52.114;5.424;2024-03-25T12:28:45;8.38;;;3.35;;
81124;SDS011;72192;52.114;5.424;2024-03-25T12:36:14;10.30;;;2.65;;
81124;SDS011;72192;52.114;5.424;2024-03-25T12:38:41;6.38;;;2.75;;
81124;SDS011;72192;52.114;5.424;2024-03-25T12:41:12;5.78;;;2.45;;
81124;SDS011;72192;52.114;5.424;2024-03-25T12:46:19;5.75;;;2.80;;
81124;SDS011;72192;52.114;5.424;2024-03-25T12:48:46;10.73;;;2.63;;
81124;SDS011;72192;52.114;5.424;2024-03-25T12:51:14;7.05;;;2.60;;
81124;SDS011;72192;52.114;5.424;2024-03-25T12:53:41;5.35;;;2.33;;
81124;SDS011;72192;52.114;5.424;2024-03-25T12:58:40;7.50;;;2.60;;
81124;SDS011;72192;52.114;5.424;2024-03-25T13:01:07;8.05;;;2.95;;
81124;SDS011;72192;52.114;5.424;2024-03-25T13:03:35;6.00;;;2.63;;
81124;SDS011;72192;52.114;5.424;2024-03-25T13:06:03;6.82;;;2.42;;
81124;SDS011;72192;52.114;5.424;2024-03-25T13:08:32;6.55;;;2.55;;
81124;SDS011;72192;52.114;5.424;2024-03-25T13:10:58;7.55;;;2.50;;
81124;SDS011;72192;52.114;5.424;2024-03-25T13:15:52;7.55;;;2.78;;
81124;SDS011;72192;52.114;5.424;2024-03-25T13:18:18;6.05;;;2.60;;
81124;SDS011;72192;52.114;5.424;2024-03-25T13:20:48;7.90;;;3.03;;
81124;SDS011;72192;52.114;5.424;2024-03-25T13:23:16;8.00;;;3.00;;
81124;SDS011;72192;52.114;5.424;2024-03-25T13:25:45;7.43;;;2.80;;
81124;SDS011;72192;52.114;5.424;2024-03-25T13:30:43;8.82;;;2.53;;
81124;SDS011;72192;52.114;5.424;2024-03-25T13:33:11;6.97;;;2.75;;
81124;SDS011;72192;52.114;5.424;2024-03-25T13:35:38;9.40;;;2.70;;
81124;SDS011;72192;52.114;5.424;2024-03-25T13:38:03;7.50;;;3.00;;
81124;SDS011;72192;52.114;5.424;2024-03-25T13:40:29;7.47;;;2.75;;
81124;SDS011;72192;52.114;5.424;2024-03-25T13:42:58;8.30;;;2.83;;
81124;SDS011;72192;52.114;5.424;2024-03-25T13:45:26;6.77;;;2.83;;
81124;SDS011;72192;52.114;5.424;2024-03-25T13:51:01;5.90;;;2.38;;
81124;SDS011;72192;52.114;5.424;2024-03-25T13:53:26;7.57;;;2.65;;
81124;SDS011;72192;52.114;5.424;2024-03-25T13:55:59;6.78;;;2.17;;
81124;SDS011;72192;52.114;5.424;2024-03-25T14:01:01;8.00;;;2.30;;
81124;SDS011;72192;52.114;5.424;2024-03-25T14:03:27;8.23;;;2.95;;
81124;SDS011;72192;52.114;5.424;2024-03-25T14:05:58;5.88;;;2.20;;
81124;SDS011;72192;52.114;5.424;2024-03-25T14:08:23;6.07;;;2.70;;
81124;SDS011;72192;52.114;5.424;2024-03-25T14:10:59;6.63;;;2.55;;
81124;SDS011;72192;52.114;5.424;2024-03-25T14:15:54;5.93;;;2.35;;
81124;SDS011;72192;52.114;5.424;2024-03-25T14:20:51;8.63;;;2.43;;
81124;SDS011;72192;52.114;5.424;2024-03-25T14:23:21;6.18;;;2.58;;
81124;SDS011;72192;52.114;5.424;2024-03-25T14:25:47;7.00;;;2.45;;
81124;SDS011;72192;52.114;5.424;2024-03-25T14:33:17;8.05;;;2.67;;
81124;SDS011;72192;52.114;5.424;2024-03-25T14:35:47;8.68;;;2.65;;
81124;SDS011;72192;52.114;5.424;2024-03-25T14:38:15;5.90;;;2.40;;
81124;SDS011;72192;52.114;5.424;2024-03-25T14:40:41;7.43;;;2.67;;
81124;SDS011;72192;52.114;5.424;2024-03-25T14:48:06;7.32;;;2.08;;
81124;SDS011;72192;52.114;5.424;2024-03-25T14:50:33;5.30;;;2.00;;
81124;SDS011;72192;52.114;5.424;2024-03-25T14:52:59;4.90;;;1.92;;
81124;SDS011;72192;52.114;5.424;2024-03-25T14:55:25;6.43;;;2.33;;
81124;SDS011;72192;52.114;5.424;2024-03-25T15:03:08;5.85;;;2.40;;
81124;SDS011;72192;52.114;5.424;2024-03-25T15:05:37;7.77;;;2.63;;
81124;SDS011;72192;52.114;5.424;2024-03-25T15:08:07;5.15;;;2.00;;
81124;SDS011;72192;52.114;5.424;2024-03-25T15:10:36;6.70;;;2.60;;
81124;SDS011;72192;52.114;5.424;2024-03-25T15:15:38;6.93;;;2.10;;
81124;SDS011;72192;52.114;5.424;2024-03-25T15:18:06;6.00;;;2.20;;
81124;SDS011;72192;52.114;5.424;2024-03-25T15:20:34;5.85;;;2.15;;
81124;SDS011;72192;52.114;5.424;2024-03-25T15:23:01;6.40;;;1.92;;
81124;SDS011;72192;52.114;5.424;2024-03-25T15:25:30;6.70;;;2.63;;
81124;SDS011;72192;52.114;5.424;2024-03-25T15:27:59;5.90;;;2.30;;
81124;SDS011;72192;52.114;5.424;2024-03-25T15:30:30;6.35;;;2.60;;
81124;SDS011;72192;52.114;5.424;2024-03-25T15:33:00;7.68;;;2.80;;
81124;SDS011;72192;52.114;5.424;2024-03-25T15:35:27;8.35;;;3.30;;
81124;SDS011;72192;52.114;5.424;2024-03-25T15:37:54;9.10;;;2.78;;
81124;SDS011;72192;52.114;5.424;2024-03-25T15:40:21;8.75;;;3.10;;
81124;SDS011;72192;52.114;5.424;2024-03-25T15:45:19;5.40;;;2.83;;
81124;SDS011;72192;52.114;5.424;2024-03-25T15:47:51;6.57;;;2.85;;
81124;SDS011;72192;52.114;5.424;2024-03-25T15:50:20;6.40;;;2.40;;
81124;SDS011;72192;52.114;5.424;2024-03-25T15:52:49;7.60;;;2.67;;
81124;SDS011;72192;52.114;5.424;2024-03-25T15:55:18;6.82;;;2.78;;
81124;SDS011;72192;52.114;5.424;2024-03-25T15:57:44;7.07;;;2.60;;
81124;SDS011;72192;52.114;5.424;2024-03-25T16:00:10;6.13;;;2.28;;
81124;SDS011;72192;52.114;5.424;2024-03-25T16:02:37;9.00;;;3.35;;
81124;SDS011;72192;52.114;5.424;2024-03-25T16:05:05;6.47;;;2.15;;
81124;SDS011;72192;52.114;5.424;2024-03-25T16:07:36;7.65;;;2.83;;
81124;SDS011;72192;52.114;5.424;2024-03-25T16:10:03;8.50;;;2.50;;
81124;SDS011;72192;52.114;5.424;2024-03-25T16:12:31;7.90;;;2.53;;
81124;SDS011;72192;52.114;5.424;2024-03-25T16:15:00;6.25;;;2.30;;
81124;SDS011;72192;52.114;5.424;2024-03-25T16:20:06;10.45;;;3.00;;
81124;SDS011;72192;52.114;5.424;2024-03-25T16:22:34;5.53;;;2.50;;
81124;SDS011;72192;52.114;5.424;2024-03-25T16:27:39;8.13;;;3.15;;
81124;SDS011;72192;52.114;5.424;2024-03-25T16:30:08;9.10;;;3.10;;
81124;SDS011;72192;52.114;5.424;2024-03-25T16:32:39;6.68;;;2.60;;
81124;SDS011;72192;52.114;5.424;2024-03-25T16:35:07;7.70;;;3.15;;
81124;SDS011;72192;52.114;5.424;2024-03-25T16:37:36;5.90;;;2.47;;
81124;SDS011;72192;52.114;5.424;2024-03-25T16:40:05;6.85;;;3.00;;
81124;SDS011;72192;52.114;5.424;2024-03-25T16:42:34;6.75;;;2.80;;
81124;SDS011;72192;52.114;5.424;2024-03-25T16:45:03;6.95;;;2.90;;
81124;SDS011;72192;52.114;5.424;2024-03-25T16:47:33;8.45;;;3.17;;
81124;SDS011;72192;52.114;5.424;2024-03-25T16:50:02;6.85;;;2.60;;
81124;SDS011;72192;52.114;5.424;2024-03-25T16:52:34;7.15;;;2.50;;
81124;SDS011;72192;52.114;5.424;2024-03-25T16:55:07;7.10;;;3.00;;
81124;SDS011;72192;52.114;5.424;2024-03-25T16:57:35;5.13;;;2.50;;
81124;SDS011;72192;52.114;5.424;2024-03-25T17:00:03;6.90;;;2.65;;
81124;SDS011;72192;52.114;5.424;2024-03-25T17:02:33;7.15;;;2.70;;
81124;SDS011;72192;52.114;5.424;2024-03-25T17:05:02;12.70;;;2.85;;
81124;SDS011;72192;52.114;5.424;2024-03-25T17:07:33;9.18;;;2.90;;
81124;SDS011;72192;52.114;5.424;2024-03-25T17:10:01;8.10;;;2.97;;
81124;SDS011;72192;52.114;5.424;2024-03-25T17:12:30;5.25;;;2.50;;
81124;SDS011;72192;52.114;5.424;2024-03-25T17:19:57;8.80;;;3.00;;
81124;SDS011;72192;52.114;5.424;2024-03-25T17:22:25;7.20;;;2.80;;
81124;SDS011;72192;52.114;5.424;2024-03-25T17:24:53;8.60;;;3.33;;
81124;SDS011;72192;52.114;5.424;2024-03-25T17:27:22;8.13;;;3.00;;
81124;SDS011;72192;52.114;5.424;2024-03-25T17:32:26;11.02;;;3.63;;
81124;SDS011;72192;52.114;5.424;2024-03-25T17:34:55;8.20;;;2.87;;
81124;SDS011;72192;52.114;5.424;2024-03-25T17:37:24;8.85;;;3.60;;
81124;SDS011;72192;52.114;5.424;2024-03-25T17:39:51;11.18;;;3.30;;
81124;SDS011;72192;52.114;5.424;2024-03-25T17:42:18;10.55;;;3.30;;
81124;SDS011;72192;52.114;5.424;2024-03-25T17:44:50;8.20;;;3.23;;
81124;SDS011;72192;52.114;5.424;2024-03-25T17:52:39;11.90;;;3.47;;
81124;SDS011;72192;52.114;5.424;2024-03-25T17:55:06;9.55;;;3.80;;
81124;SDS011;72192;52.114;5.424;2024-03-25T17:57:34;10.05;;;3.35;;
81124;SDS011;72192;52.114;5.424;2024-03-25T18:00:03;9.27;;;3.60;;
81124;SDS011;72192;52.114;5.424;2024-03-25T18:02:39;10.97;;;3.57;;
81124;SDS011;72192;52.114;5.424;2024-03-25T18:07:42;6.50;;;3.10;;
81124;SDS011;72192;52.114;5.424;2024-03-25T18:12:45;8.60;;;3.30;;
81124;SDS011;72192;52.114;5.424;2024-03-25T18:15:14;9.60;;;3.60;;
81124;SDS011;72192;52.114;5.424;2024-03-25T18:17:44;8.75;;;3.50;;
81124;SDS011;72192;52.114;5.424;2024-03-25T18:20:13;9.80;;;4.45;;
81124;SDS011;72192;52.114;5.424;2024-03-25T18:27:53;7.95;;;3.70;;
81124;SDS011;72192;52.114;5.424;2024-03-25T18:30:21;8.35;;;3.60;;
81124;SDS011;72192;52.114;5.424;2024-03-25T18:32:50;7.70;;;4.00;;
81124;SDS011;72192;52.114;5.424;2024-03-25T18:35:19;8.55;;;3.90;;
81124;SDS011;72192;52.114;5.424;2024-03-25T18:37:52;8.80;;;4.00;;
81124;SDS011;72192;52.114;5.424;2024-03-25T18:40:20;9.10;;;4.32;;
81124;SDS011;72192;52.114;5.424;2024-03-25T18:50:41;7.65;;;3.80;;
81124;SDS011;72192;52.114;5.424;2024-03-25T18:55:49;6.60;;;3.35;;
81124;SDS011;72192;52.114;5.424;2024-03-25T19:09:28;7.10;;;3.70;;
81124;SDS011;72192;52.114;5.424;2024-03-25T19:17:22;8.70;;;3.40;;
81124;SDS011;72192;52.114;5.424;2024-03-25T19:22:40;13.25;;;4.20;;
81124;SDS011;72192;52.114;5.424;2024-03-25T19:25:11;19.13;;;7.85;;
81124;SDS011;72192;52.114;5.424;2024-03-25T19:35:35;14.45;;;5.80;;
81124;SDS011;72192;52.114;5.424;2024-03-25T19:38:06;9.98;;;4.25;;
81124;SDS011;72192;52.114;5.424;2024-03-25T19:40:33;13.35;;;4.70;;
81124;SDS011;72192;52.114;5.424;2024-03-25T19:43:02;9.02;;;3.90;;